Time;durP1;ratioP1;P1;durP2;ratioP2;P2;SDS_P1;SDS_P2;PMS_P1;PMS_P2;Temp;Humidity;BMP_temperature;BMP_pressure;BME280_temperature;BME280_humidity;BME280_pressure;Samples;Min_cycle;Max_cycle;Signal;HPM_P1;HPM_P2
2023/10/20 00:02:07;;;;;;;23.77;10.13;;;21.60;99.10;;;;;;5115017;28;20055;-72
2023/10/20 00:05:13;;;;;;;36.13;10.25;;;20.70;98.90;;;;;;5114879;28;20101;-73
2023/10/20 00:08:17;;;;;;;30.63;10.57;;;20.70;99.10;;;;;;5114992;28;20498;-72
2023/10/20 00:11:22;;;;;;;28.23;9.35;;;20.80;98.40;;;;;;5115036;28;20071;-73
2023/10/20 00:14:25;;;;;;;27.88;9.35;;;20.90;98.20;;;;;;5114822;28;20039;-72
2023/10/20 00:17:29;;;;;;;25.40;9.90;;;20.80;98.50;;;;;;5114987;28;20518;-72
2023/10/20 00:20:33;;;;;;;26.10;9.68;;;20.70;98.20;;;;;;5114621;28;20047;-72
2023/10/20 00:23:37;;;;;;;29.58;9.07;;;20.60;98.10;;;;;;5114422;28;20066;-72
2023/10/20 00:26:41;;;;;;;30.08;8.90;;;20.60;98.00;;;;;;5114826;28;20047;-72
2023/10/20 00:29:45;;;;;;;25.67;8.52;;;20.60;98.20;;;;;;5114713;28;20047;-73
2023/10/20 00:32:49;;;;;;;25.65;8.90;;;20.50;98.30;;;;;;5114735;28;20040;-73
2023/10/20 00:35:53;;;;;;;24.80;8.77;;;19.00;97.70;;;;;;5114688;28;20043;-73
2023/10/20 00:38:57;;;;;;;24.80;8.77;;;21.00;98.00;;;;;;5114576;28;20586;-72
2023/10/20 00:42:02;;;;;;;20.75;8.07;;;18.20;97.40;;;;;;5101927;28;20050;-72
2023/10/20 00:45:08;;;;;;;27.33;8.60;;;20.40;98.10;;;;;;5114262;28;20067;-72
2023/10/20 00:48:12;;;;;;;29.88;9.45;;;21.00;98.70;;;;;;5114435;28;20039;-72
2023/10/20 00:51:18;;;;;;;24.67;10.43;;;20.30;98.30;;;;;;5113299;28;20047;-72
2023/10/20 00:54:22;;;;;;;28.05;9.02;;;;;;;;;;5113515;28;20109;-73
2023/10/20 00:57:26;;;;;;;37.28;9.30;;;21.20;99.20;;;;;;5114129;28;20050;-72
2023/10/20 01:00:30;;;;;;;28.33;8.80;;;20.70;99.10;;;;;;5101409;28;20039;-73
2023/10/20 01:03:35;;;;;;;32.70;9.65;;;19.90;99.10;;;;;;5112715;28;20051;-73
2023/10/20 01:06:40;;;;;;;33.10;10.00;;;20.20;99.10;;;;;;5113806;28;20509;-72
2023/10/20 01:09:44;;;;;;;37.42;10.43;;;19.90;99.40;;;;;;5112601;28;20042;-72
2023/10/20 01:12:48;;;;;;;26.73;9.38;;;20.20;99.60;;;;;;5112667;28;20047;-72
2023/10/20 01:15:53;;;;;;;23.67;8.15;;;20.30;99.90;;;;;;5113439;28;20038;-72
2023/10/20 01:19:00;;;;;;;26.67;8.38;;;20.40;99.90;;;;;;5113405;28;20050;-72
2023/10/20 01:22:04;;;;;;;29.85;9.52;;;20.40;99.90;;;;;;5112918;28;20367;-72
2023/10/20 01:25:08;;;;;;;29.90;8.80;;;18.90;99.40;;;;;;5113394;28;20050;-72
2023/10/20 01:28:13;;;;;;;22.20;8.45;;;20.30;99.90;;;;;;5113506;28;20042;-71
2023/10/20 01:31:17;;;;;;;25.30;8.43;;;20.50;99.90;;;;;;5113371;28;20046;-72
2023/10/20 01:34:21;;;;;;;30.13;8.68;;;20.50;99.90;;;;;;5112640;28;20039;-72
2023/10/20 01:37:25;;;;;;;24.65;8.55;;;20.50;99.90;;;;;;5113216;28;20046;-71
2023/10/20 01:40:30;;;;;;;24.35;9.02;;;20.50;99.90;;;;;;5113419;28;20112;-72
2023/10/20 01:43:34;;;;;;;22.48;8.77;;;20.60;99.90;;;;;;5113122;28;20074;-72
2023/10/20 01:46:38;;;;;;;29.15;8.77;;;20.70;99.90;;;;;;5113040;28;20494;-72
2023/10/20 01:49:42;;;;;;;29.02;8.80;;;22.20;99.90;;;;;;5113110;28;20046;-71
2023/10/20 01:52:46;;;;;;;21.83;8.68;;;20.50;99.70;;;;;;5112978;28;20043;-71
2023/10/20 01:55:53;;;;;;;31.25;9.43;;;20.60;99.50;;;;;;5112865;28;20035;-71
2023/10/20 01:58:58;;;;;;;30.90;7.72;;;20.50;99.70;;;;;;5112090;28;20062;-71
2023/10/20 02:02:03;;;;;;;22.27;8.32;;;;;;;;;;5111717;28;20467;-71
2023/10/20 02:05:08;;;;;;;22.40;9.43;;;19.30;98.60;;;;;;5112818;28;20054;-71
2023/10/20 02:08:12;;;;;;;30.45;9.77;;;19.90;99.00;;;;;;5111731;28;20058;-72
2023/10/20 02:11:16;;;;;;;22.52;8.77;;;19.70;99.40;;;;;;5111737;28;20043;-74
2023/10/20 02:14:20;;;;;;;27.42;8.05;;;20.10;99.60;;;;;;5112518;28;20035;-71
2023/10/20 02:17:24;;;;;;;33.72;8.43;;;;;;;;;;5112604;28;20047;-72
2023/10/20 02:20:29;;;;;;;37.78;8.63;;;;;;;;;;5112431;28;20035;-73
2023/10/20 02:23:38;;;;;;;21.55;8.38;;;19.90;99.00;;;;;;5111606;28;20513;-72
2023/10/20 02:26:45;;;;;;;26.27;7.97;;;;;;;;;;5112231;28;20042;-72
2023/10/20 02:29:49;;;;;;;23.60;7.93;;;19.60;99.40;;;;;;5112398;28;20430;-72
2023/10/20 02:32:55;;;;;;;22.85;8.10;;;19.70;99.40;;;;;;5111548;28;20059;-72
2023/10/20 02:35:59;;;;;;;24.00;7.95;;;;;;;;;;5111328;28;20529;-72
2023/10/20 02:39:04;;;;;;;24.83;8.93;;;;;;;;;;5111485;28;20039;-72
2023/10/20 02:42:09;;;;;;;29.25;8.30;;;18.30;99.50;;;;;;5112258;28;20039;-73
2023/10/20 02:45:13;;;;;;;26.33;9.15;;;;;;;;;;5111879;28;20423;-72
2023/10/20 02:48:17;;;;;;;19.75;8.65;;;;;;;;;;5110994;28;20031;-73
2023/10/20 02:51:21;;;;;;;22.80;8.77;;;;;;;;;;5111292;28;20036;-73
2023/10/20 02:54:27;;;;;;;24.40;8.65;;;;;;;;;;5111126;28;20031;-72
2023/10/20 02:57:31;;;;;;;23.63;9.10;;;;;;;;;;5111901;28;20043;-72
2023/10/20 03:00:45;;;;;;;27.63;9.27;;;19.40;99.90;;;;;;5110922;28;20046;-72
2023/10/20 03:03:50;;;;;;;26.05;9.15;;;;;;;;;;5110601;28;20066;-72
2023/10/20 03:06:54;;;;;;;27.95;9.07;;;19.60;99.90;;;;;;5110800;28;20051;-73
2023/10/20 03:09:59;;;;;;;26.02;9.05;;;;;;;;;;5111577;28;20375;-72
2023/10/20 03:13:04;;;;;;;24.58;8.48;;;18.50;99.90;;;;;;5111864;28;20031;-72
2023/10/20 03:16:08;;;;;;;25.83;9.30;;;;;;;;;;5111542;28;20063;-72
2023/10/20 03:19:12;;;;;;;25.02;8.38;;;;;;;;;;5111083;28;20039;-72
2023/10/20 03:22:17;;;;;;;17.52;8.02;;;;;;;;;;5111818;28;20031;-72
2023/10/20 03:25:21;;;;;;;25.15;8.88;;;;;;;;;;5111718;28;20051;-72
2023/10/20 03:28:26;;;;;;;24.02;9.13;;;19.20;99.90;;;;;;5111556;28;20395;-72
2023/10/20 03:31:30;;;;;;;26.25;10.02;;;;;;;;;;5111560;28;20046;-72
2023/10/20 03:34:34;;;;;;;25.10;8.73;;;;;;;;;;5111404;28;20039;-72
2023/10/20 03:37:39;;;;;;;20.25;9.20;;;;;;;;;;5111334;28;20050;-72
2023/10/20 03:40:46;;;;;;;26.08;8.82;;;;;;;;;;5111294;28;20027;-71
2023/10/20 03:43:50;;;;;;;26.27;8.20;;;;;;;;;;5110341;28;20050;-71
2023/10/20 03:46:59;;;;;;;29.83;9.43;;;;;;;;;;5110603;28;20038;-71
2023/10/20 03:50:03;;;;;;;22.40;8.40;;;;;;;;;;5111161;28;20042;-73
2023/10/20 03:53:10;;;;;;;22.45;8.95;;;19.00;99.90;;;;;;5111186;28;20391;-72
2023/10/20 03:56:18;;;;;;;33.50;8.50;;;;;;;;;;5111227;28;20042;-73
2023/10/20 03:59:24;;;;;;;25.52;9.23;;;;;;;;;;5110936;28;20027;-72
2023/10/20 04:02:28;;;;;;;29.92;9.73;;;;;;;;;;5111106;28;20040;-73
2023/10/20 04:05:32;;;;;;;28.20;9.82;;;18.90;99.90;;;;;;5110982;28;20411;-72
2023/10/20 04:08:36;;;;;;;30.75;10.00;;;21.20;99.90;;;;;;5110811;28;20394;-72
2023/10/20 04:11:40;;;;;;;34.97;10.73;;;19.30;99.90;;;;;;5110162;28;20055;-72
2023/10/20 04:14:44;;;;;;;30.05;11.32;;;;;;;;;;5111173;28;20066;-72
2023/10/20 04:17:52;;;;;;;30.70;9.48;;;18.60;99.90;;;;;;5110796;28;20514;-72
2023/10/20 04:20:57;;;;;;;24.02;8.85;;;;;;;;;;5111128;28;20039;-72
2023/10/20 04:24:01;;;;;;;25.00;9.68;;;18.90;99.90;;;;;;5110758;28;20047;-73
2023/10/20 04:27:12;;;;;;;30.27;9.05;;;;;;;;;;5109757;28;20038;-72
2023/10/20 04:57:40;;;;;;;32.42;8.27;;;20.00;98.20;;;;;;5071242;28;20048;-73
2023/10/20 05:00:45;;;;;;;37.38;8.80;;;20.10;98.30;;;;;;5077980;28;20039;-73
2023/10/20 05:03:54;;;;;;;30.30;8.70;;;20.10;98.30;;;;;;5113700;28;20046;-73
2023/10/20 05:07:05;;;;;;;37.72;10.05;;;20.10;98.20;;;;;;5113993;28;20042;-72
2023/10/20 05:10:09;;;;;;;28.33;8.82;;;19.80;98.60;;;;;;5114379;28;20049;-72
2023/10/20 05:13:13;;;;;;;34.80;9.80;;;;;;;;;;5114014;28;20047;-72
2023/10/20 05:16:17;;;;;;;31.60;9.30;;;18.80;98.80;;;;;;5114051;28;20364;-72
2023/10/20 05:19:21;;;;;;;29.25;9.82;;;21.20;99.70;;;;;;5113510;28;20043;-59
2023/10/20 05:22:26;;;;;;;37.03;9.50;;;19.40;99.50;;;;;;5113600;28;20054;-60
2023/10/20 05:25:30;;;;;;;40.80;11.88;;;19.60;99.30;;;;;;5113446;28;20046;-60
2023/10/20 05:28:36;;;;;;;31.92;10.73;;;18.50;99.10;;;;;;5113394;28;20050;-60
2023/10/20 05:31:40;;;;;;;39.35;10.85;;;18.60;99.20;;;;;;5113326;28;20109;-60
2023/10/20 05:34:44;;;;;;;48.00;12.57;;;20.30;99.90;;;;;;5113347;28;20046;-60
2023/10/20 05:37:49;;;;;;;38.45;11.30;;;;;;;;;;5112920;28;20063;-60
2023/10/20 05:40:59;;;;;;;38.30;12.02;;;19.20;99.90;;;;;;5112886;28;20042;-60
2023/10/20 05:44:06;;;;;;;42.17;11.90;;;19.00;99.90;;;;;;5112713;28;20521;-59
2023/10/20 05:47:10;;;;;;;43.45;13.02;;;;;;;;;;5112769;28;20517;-60
2023/10/20 05:50:15;;;;;;;39.60;12.02;;;;;;;;;;5112708;28;20046;-60
2023/10/20 05:53:19;;;;;;;32.30;11.52;;;19.10;99.80;;;;;;5112907;28;20395;-60
2023/10/20 05:56:24;;;;;;;45.90;11.10;;;21.40;99.90;;;;;;5112819;28;20042;-60
2023/10/20 05:59:28;;;;;;;41.60;11.90;;;18.80;99.10;;;;;;5112562;28;20051;-60
2023/10/20 06:02:33;;;;;;;34.50;12.38;;;20.30;99.20;;;;;;5112397;28;20038;-60
2023/10/20 06:05:37;;;;;;;41.97;12.02;;;;;;;;;;5112269;28;20050;-60
2023/10/20 06:08:41;;;;;;;42.55;14.23;;;20.60;99.00;;;;;;5112121;28;20042;-60
2023/10/20 06:11:45;;;;;;;40.80;11.27;;;;;;;;;;5112348;28;20502;-59
2023/10/20 06:14:49;;;;;;;41.17;12.30;;;20.60;98.90;;;;;;5112206;28;20031;-60
2023/10/20 06:17:53;;;;;;;31.33;11.02;;;20.90;99.00;;;;;;5112100;28;20391;-59
2023/10/20 06:20:58;;;;;;;53.20;12.73;;;21.20;98.20;;;;;;5112355;28;20042;-60
2023/10/20 06:24:03;;;;;;;39.85;12.35;;;21.30;98.20;;;;;;5112104;28;20418;-59
2023/10/20 06:27:07;;;;;;;51.42;13.57;;;21.20;98.20;;;;;;5111826;28;20051;-60
2023/10/20 06:30:21;;;;;;;48.90;13.73;;;21.30;98.20;;;;;;5112113;28;20042;-60
2023/10/20 06:33:32;;;;;;;44.45;13.25;;;21.60;98.10;;;;;;5112026;28;20054;-60
2023/10/20 06:36:38;;;;;;;52.00;15.63;;;21.70;97.50;;;;;;5111147;28;20043;-60
2023/10/20 06:39:42;;;;;;;37.47;12.68;;;21.80;97.40;;;;;;5111033;28;20138;-60
2023/10/20 06:42:46;;;;;;;40.38;12.32;;;22.00;97.50;;;;;;5111227;28;20046;-60
2023/10/20 06:45:57;;;;;;;43.80;12.13;;;22.10;97.20;;;;;;5111763;28;20059;-60
2023/10/20 06:49:03;;;;;;;45.13;12.00;;;22.20;96.80;;;;;;5111451;28;20043;-60
2023/10/20 06:52:07;;;;;;;37.40;11.63;;;22.50;96.50;;;;;;5111745;28;20051;-60
2023/10/20 06:55:10;;;;;;;52.72;12.70;;;22.70;96.00;;;;;;5111373;28;20047;-59
2023/10/20 06:58:17;;;;;;;53.78;11.80;;;22.90;95.70;;;;;;5111603;28;20046;-60
2023/10/20 07:01:21;;;;;;;62.03;11.40;;;23.10;95.40;;;;;;5111657;28;20039;-61
2023/10/20 07:04:26;;;;;;;39.05;11.15;;;23.30;95.10;;;;;;5110980;28;20059;-65
2023/10/20 07:07:30;;;;;;;48.22;10.27;;;23.50;95.20;;;;;;5111564;28;20044;-62
2023/10/20 07:10:38;;;;;;;40.35;11.07;;;23.60;95.10;;;;;;5111508;28;20051;-60
2023/10/20 07:13:45;;;;;;;38.83;11.25;;;23.80;94.40;;;;;;5111237;28;20046;-60
2023/10/20 07:16:50;;;;;;;28.73;8.40;;;24.00;94.10;;;;;;5111127;28;20046;-61
2023/10/20 07:19:54;;;;;;;42.60;7.05;;;24.20;93.00;;;;;;5111405;28;20127;-59
2023/10/20 07:22:59;;;;;;;32.55;6.68;;;24.50;90.20;;;;;;5111327;28;20046;-60
2023/10/20 07:26:03;;;;;;;39.50;5.82;;;25.20;86.00;;;;;;5111067;28;20055;-59
2023/10/20 07:29:07;;;;;;;31.45;5.22;;;25.30;86.40;;;;;;5111183;28;20417;-59
2023/10/20 07:32:12;;;;;;;36.50;5.40;;;25.90;84.70;;;;;;5111382;28;20042;-59
2023/10/20 07:35:16;;;;;;;45.75;7.28;;;26.10;84.30;;;;;;5111125;28;20430;-60
2023/10/20 07:38:20;;;;;;;38.88;6.13;;;26.10;84.60;;;;;;5110943;28;20051;-60
2023/10/20 07:41:25;;;;;;;30.60;6.32;;;26.20;83.60;;;;;;5111224;28;20391;-59
2023/10/20 07:44:29;;;;;;;31.73;5.85;;;26.30;84.00;;;;;;5110883;28;20059;-59
2023/10/20 07:47:33;;;;;;;47.53;6.75;;;26.50;82.70;;;;;;5111007;28;20046;-60
2023/10/20 07:50:37;;;;;;;40.05;5.85;;;26.70;81.70;;;;;;5111074;28;20066;-60
2023/10/20 07:53:41;;;;;;;40.42;7.22;;;26.70;80.50;;;;;;5111074;28;20055;-60
2023/10/20 07:56:45;;;;;;;41.63;6.50;;;26.80;82.10;;;;;;5111041;28;20039;-60
2023/10/20 07:59:52;;;;;;;21.98;5.03;;;26.80;81.70;;;;;;5111131;28;20402;-60
2023/10/20 08:02:56;;;;;;;20.48;4.93;;;26.70;82.30;;;;;;5110842;28;20070;-60
2023/10/20 08:06:02;;;;;;;28.77;6.63;;;26.60;82.20;;;;;;5113805;28;20051;-60
2023/10/20 08:09:09;;;;;;;21.50;5.65;;;26.60;81.70;;;;;;5114429;28;20047;-59
2023/10/20 08:12:13;;;;;;;26.00;5.13;;;26.60;82.30;;;;;;5114916;28;20046;-60
2023/10/20 08:15:17;;;;;;;17.23;4.40;;;26.60;82.70;;;;;;5114435;28;20042;-60
2023/10/20 08:18:21;;;;;;;26.15;4.63;;;26.60;84.00;;;;;;5114469;28;20043;-61
2023/10/20 08:21:29;;;;;;;27.67;6.13;;;26.50;85.00;;;;;;5114730;28;20038;-61
2023/10/20 08:24:34;;;;;;;32.65;5.78;;;26.70;84.20;;;;;;5114309;28;20048;-61
2023/10/20 08:27:38;;;;;;;43.22;7.50;;;26.90;84.50;;;;;;5114018;28;20062;-61
2023/10/20 08:30:42;;;;;;;26.95;5.72;;;27.10;84.00;;;;;;5114501;28;20506;-60
2023/10/20 08:33:47;;;;;;;36.28;8.35;;;27.10;83.50;;;;;;5114176;28;20042;-60
2023/10/20 08:36:51;;;;;;;24.50;5.80;;;27.10;83.50;;;;;;5114248;28;20042;-60
2023/10/20 08:39:55;;;;;;;51.08;7.53;;;27.10;83.80;;;;;;5113450;28;20065;-60
2023/10/20 08:43:04;;;;;;;30.73;6.38;;;27.10;83.30;;;;;;5114299;28;20374;-60
2023/10/20 08:46:10;;;;;;;41.90;7.60;;;27.20;83.70;;;;;;5114288;28;20058;-60
2023/10/20 08:49:14;;;;;;;44.83;12.82;;;27.30;82.20;;;;;;5113985;28;20043;-60
2023/10/20 08:52:18;;;;;;;45.00;13.45;;;27.30;82.60;;;;;;5113926;28;20043;-60
2023/10/20 08:55:22;;;;;;;43.97;10.13;;;27.60;82.20;;;;;;5113237;28;20058;-60
2023/10/20 08:58:27;;;;;;;38.63;8.90;;;27.60;82.90;;;;;;5113606;28;20050;-60
2023/10/20 09:01:31;;;;;;;34.92;7.68;;;27.90;82.20;;;;;;5113979;28;20046;-61
2023/10/20 09:04:35;;;;;;;39.83;7.20;;;28.10;81.70;;;;;;5113013;28;20055;-59
2023/10/20 09:07:49;;;;;;;32.75;6.70;;;28.20;81.30;;;;;;5112566;28;20074;-60
2023/10/20 09:10:54;;;;;;;36.95;6.78;;;28.20;81.90;;;;;;5113312;28;20597;-60
2023/10/20 09:13:59;;;;;;;34.63;7.00;;;28.30;81.30;;;;;;5113563;28;20042;-60
2023/10/20 09:17:03;;;;;;;35.63;6.63;;;28.70;82.20;;;;;;5112809;28;20494;-60
2023/10/20 09:20:11;;;;;;;51.97;8.30;;;28.60;81.30;;;;;;5113044;28;20046;-59
2023/10/20 09:23:15;;;;;;;31.13;6.55;;;28.10;81.00;;;;;;5112149;28;20035;-60
2023/10/20 09:26:20;;;;;;;39.50;7.10;;;28.90;82.00;;;;;;5113218;28;20054;-61
2023/10/20 09:29:26;;;;;;;44.25;7.22;;;29.00;81.50;;;;;;5113309;28;20038;-60
2023/10/20 09:32:30;;;;;;;27.70;6.65;;;29.00;82.00;;;;;;5112237;28;20046;-60
2023/10/20 09:35:39;;;;;;;37.65;7.40;;;29.30;81.40;;;;;;5113116;28;20051;-60
2023/10/20 09:38:54;;;;;;;27.10;6.20;;;29.40;81.60;;;;;;5113114;28;20042;-60
2023/10/20 09:42:02;;;;;;;34.03;6.13;;;29.40;81.40;;;;;;5112901;28;20047;-60
2023/10/20 09:45:11;;;;;;;35.67;5.78;;;29.50;80.40;;;;;;5112792;28;20046;-61
2023/10/20 09:48:19;;;;;;;35.97;6.70;;;29.80;81.70;;;;;;5113031;28;20509;-61
2023/10/20 09:51:24;;;;;;;36.92;6.38;;;29.70;81.70;;;;;;5112651;28;20050;-60
2023/10/20 09:54:30;;;;;;;40.35;6.78;;;29.60;81.20;;;;;;5112716;28;20429;-60
2023/10/20 09:57:37;;;;;;;29.55;6.70;;;29.60;81.70;;;;;;5112304;28;20039;-60
2023/10/20 10:00:42;;;;;;;30.42;6.63;;;29.50;77.60;;;;;;5112385;28;20046;-61
2023/10/20 10:04:00;;;;;;;32.55;6.68;;;28.60;77.90;;;;;;5112143;28;20055;-59
2023/10/20 10:07:07;;;;;;;33.50;6.70;;;29.40;78.00;;;;;;5111463;28;20133;-60
2023/10/20 10:10:20;;;;;;;47.95;6.68;;;29.40;77.60;;;;;;5112721;28;20402;-61
2023/10/20 10:13:33;;;;;;;35.97;6.55;;;29.40;75.10;;;;;;5112500;28;20412;-61
2023/10/20 10:16:53;;;;;;;34.00;6.07;;;29.40;75.90;;;;;;5112198;28;20050;-61
2023/10/20 10:19:58;;;;;;;36.20;6.82;;;29.10;73.90;;;;;;5112470;28;20030;-60
2023/10/20 10:23:06;;;;;;;38.13;5.60;;;29.60;74.60;;;;;;5112115;28;20042;-61
2023/10/20 10:26:13;;;;;;;31.33;5.32;;;29.60;71.80;;;;;;5111910;28;20568;-61
2023/10/20 10:29:49;;;;;;;29.80;5.95;;;29.70;70.70;;;;;;5111988;28;20051;-61
2023/10/20 10:32:54;;;;;;;35.97;6.00;;;29.70;69.20;;;;;;5111006;28;20050;-61
2023/10/20 10:36:07;;;;;;;42.55;7.30;;;29.70;69.20;;;;;;5112170;28;20513;-61
2023/10/20 10:39:22;;;;;;;31.98;6.13;;;29.70;68.00;;;;;;5111927;28;20042;-61
2023/10/20 10:42:27;;;;;;;36.45;5.95;;;29.60;66.40;;;;;;5111919;28;20502;-60
2023/10/20 10:45:33;;;;;;;39.45;5.00;;;29.60;66.40;;;;;;5111762;28;20088;-61
2023/10/20 10:48:39;;;;;;;41.33;5.95;;;29.80;66.90;;;;;;5111683;28;20058;-60
2023/10/20 10:51:48;;;;;;;50.55;5.85;;;29.80;66.70;;;;;;5111390;28;20058;-60
2023/10/20 10:54:52;;;;;;;35.08;5.53;;;29.90;67.30;;;;;;5111185;28;20352;-59
2023/10/20 10:57:57;;;;;;;37.83;5.60;;;30.00;65.90;;;;;;5111792;28;20042;-59
2023/10/20 11:01:01;;;;;;;41.30;6.47;;;30.10;68.90;;;;;;5111580;28;20129;-61
2023/10/20 11:04:10;;;;;;;35.08;4.90;;;30.10;69.30;;;;;;5110719;28;20063;-60
2023/10/20 11:07:15;;;;;;;46.42;5.72;;;30.20;66.40;;;;;;5111234;28;20066;-60
2023/10/20 11:10:20;;;;;;;31.40;6.80;;;30.20;65.90;;;;;;5110670;28;20053;-60
2023/10/20 11:13:27;;;;;;;40.15;5.20;;;30.40;63.70;;;;;;5111331;28;20057;-60
2023/10/20 11:16:33;;;;;;;39.20;5.78;;;30.50;64.90;;;;;;5111223;28;20359;-60
2023/10/20 11:19:40;;;;;;;47.95;5.20;;;30.50;63.50;;;;;;5110171;28;20661;-60
2023/10/20 11:22:43;;;;;;;42.28;5.90;;;30.50;62.80;;;;;;5111410;28;20043;-61
2023/10/20 11:25:49;;;;;;;40.35;5.55;;;30.50;62.40;;;;;;5110938;28;20518;-60
2023/10/20 11:28:55;;;;;;;37.88;5.97;;;30.50;62.10;;;;;;5111104;28;20035;-60
2023/10/20 11:32:07;;;;;;;54.65;6.15;;;30.50;62.70;;;;;;5111307;28;20047;-59
2023/10/20 11:35:12;;;;;;;;;;;30.50;61.50;;;;;;5111300;28;20039;-60
2023/10/20 11:38:16;;;;;;;36.47;5.85;;;30.60;61.60;;;;;;5111284;28;20283;-60
2023/10/20 11:41:22;;;;;;;148.95;11.20;;;30.60;62.20;;;;;;5114889;28;20038;-60
2023/10/20 11:44:26;;;;;;;37.03;5.25;;;30.60;61.20;;;;;;5115085;28;20042;-61
2023/10/20 11:47:30;;;;;;;34.60;5.70;;;30.80;59.30;;;;;;5114794;28;20477;-60
2023/10/20 11:50:34;;;;;;;29.48;5.03;;;30.70;60.30;;;;;;5114099;28;20501;-60
2023/10/20 11:53:38;;;;;;;37.13;5.55;;;30.70;60.80;;;;;;5114890;28;20535;-60
2023/10/20 11:56:43;;;;;;;40.15;5.38;;;30.70;62.40;;;;;;5115009;28;20057;-60
2023/10/20 11:59:47;;;;;;;32.95;6.20;;;30.60;61.60;;;;;;5115223;28;20058;-60
2023/10/20 12:02:51;;;;;;;29.60;5.07;;;30.60;62.20;;;;;;5114802;28;20047;-60
2023/10/20 12:05:55;;;;;;;35.97;6.30;;;30.60;61.10;;;;;;5113724;28;20051;-59
2023/10/20 12:08:58;;;;;;;41.03;5.30;;;30.60;62.20;;;;;;5114856;28;20494;-59
2023/10/20 12:12:03;;;;;;;42.35;6.07;;;30.70;61.80;;;;;;5114595;28;20501;-59
2023/10/20 12:15:07;;;;;;;26.65;5.35;;;30.60;61.20;;;;;;5114745;28;20101;-59
2023/10/20 12:18:11;;;;;;;32.72;5.10;;;30.60;62.00;;;;;;5114176;28;20046;-60
2023/10/20 12:21:15;;;;;;;32.25;5.75;;;30.50;59.70;;;;;;5113851;28;20042;-60
2023/10/20 12:24:20;;;;;;;31.15;5.22;;;;;;;;;;5114493;28;20046;-59
2023/10/20 12:27:24;;;;;;;29.67;4.70;;;30.40;60.50;;;;;;5114552;28;20040;-59
2023/10/20 12:30:27;;;;;;;34.88;5.05;;;30.30;61.30;;;;;;5114237;28;20391;-59
2023/10/20 12:33:32;;;;;;;29.02;5.93;;;30.30;61.90;;;;;;5114211;28;20046;-59
2023/10/20 12:36:36;;;;;;;40.30;5.75;;;30.30;62.30;;;;;;5113780;28;20105;-60
2023/10/20 12:39:39;;;;;;;26.48;5.50;;;30.30;61.30;;;;;;5113099;28;20038;-59
2023/10/20 12:42:43;;;;;;;45.83;6.22;;;30.50;62.20;;;;;;5114005;28;20422;-59
2023/10/20 12:45:48;;;;;;;37.95;5.47;;;30.50;63.10;;;;;;5113944;28;20055;-60
2023/10/20 12:48:52;;;;;;;32.75;6.07;;;30.70;59.60;;;;;;5114174;28;20046;-60
2023/10/20 12:51:56;;;;;;;38.40;5.82;;;30.70;60.10;;;;;;5112716;28;20047;-59
2023/10/20 12:55:00;;;;;;;35.38;5.53;;;30.70;60.90;;;;;;5113656;28;20501;-59
2023/10/20 12:58:04;;;;;;;28.27;5.25;;;30.80;60.30;;;;;;5113687;28;20050;-59
2023/10/20 13:01:08;;;;;;;36.75;5.65;;;30.80;60.80;;;;;;5113766;28;20046;-59
2023/10/20 13:04:12;;;;;;;39.30;6.00;;;30.30;58.50;;;;;;5113343;28;20527;-60
2023/10/20 13:07:16;;;;;;;34.20;6.07;;;30.80;59.30;;;;;;5113502;28;20043;-60
2023/10/20 13:10:20;;;;;;;54.78;6.63;;;30.80;60.00;;;;;;5113493;28;20043;-59
2023/10/20 13:13:24;;;;;;;50.42;7.50;;;30.80;59.20;;;;;;5113450;28;20043;-59
2023/10/20 13:16:29;;;;;;;38.33;5.38;;;30.80;58.90;;;;;;5113415;28;20066;-59
2023/10/20 13:19:34;;;;;;;39.70;5.78;;;30.90;56.50;;;;;;5113330;28;20058;-61
2023/10/20 13:22:38;;;;;;;31.63;5.32;;;30.90;56.90;;;;;;5113263;28;20047;-61
2023/10/20 13:25:42;;;;;;;33.53;5.85;;;30.90;58.60;;;;;;5113378;28;20054;-61
2023/10/20 13:28:46;;;;;;;32.97;5.97;;;30.90;60.00;;;;;;5113142;28;20151;-60
2023/10/20 13:31:50;;;;;;;30.45;5.93;;;31.00;59.20;;;;;;5113197;28;20501;-61
2023/10/20 13:34:54;;;;;;;40.70;5.60;;;30.90;58.50;;;;;;5113308;28;20055;-63
2023/10/20 13:37:58;;;;;;;27.42;4.80;;;30.90;59.40;;;;;;5113250;28;20034;-62
2023/10/20 13:41:02;;;;;;;41.60;4.55;;;30.90;58.90;;;;;;5113344;28;20055;-62
2023/10/20 13:44:08;;;;;;;30.13;5.40;;;30.90;59.20;;;;;;5113043;28;20532;-60
2023/10/20 13:47:11;;;;;;;55.03;6.25;;;30.90;59.80;;;;;;5112792;28;20070;-59
2023/10/20 13:50:17;;;;;;;44.60;5.65;;;30.80;59.30;;;;;;5113081;28;20043;-61
2023/10/20 13:53:21;;;;;;;35.58;5.63;;;30.80;57.70;;;;;;5112658;28;20058;-60
2023/10/20 13:56:26;;;;;;;27.85;5.35;;;30.80;59.50;;;;;;5112693;28;20039;-60
2023/10/20 13:59:30;;;;;;;31.38;6.00;;;30.70;59.80;;;;;;5112414;28;20042;-59
2023/10/20 14:02:35;;;;;;;29.35;5.05;;;30.70;60.00;;;;;;5112184;28;20043;-59
2023/10/20 14:05:56;;;;;;;37.08;6.00;;;30.60;59.10;;;;;;5112523;28;20051;-59
2023/10/20 14:09:00;;;;;;;28.48;4.95;;;30.60;59.60;;;;;;5112376;28;20043;-59
2023/10/20 14:12:04;;;;;;;29.83;4.88;;;30.60;61.10;;;;;;5112508;28;20059;-60
2023/10/20 14:15:09;;;;;;;33.45;5.80;;;30.50;59.50;;;;;;5112458;28;20398;-61
2023/10/20 14:18:16;;;;;;;34.20;5.32;;;30.50;60.10;;;;;;5112415;28;20054;-61
2023/10/20 14:21:20;;;;;;;39.00;6.45;;;30.50;61.80;;;;;;5112332;28;20078;-61
2023/10/20 14:24:24;;;;;;;35.45;5.85;;;30.50;61.30;;;;;;5112113;28;20497;-60
2023/10/20 14:27:31;;;;;;;29.23;5.60;;;30.40;60.80;;;;;;5112145;28;20054;-61
2023/10/20 14:30:35;;;;;;;35.67;6.50;;;30.40;62.40;;;;;;5112147;28;20545;-61
2023/10/20 14:33:39;;;;;;;29.50;5.05;;;30.20;61.00;;;;;;5111710;28;20528;-61
2023/10/20 14:36:43;;;;;;;29.77;6.00;;;30.30;61.50;;;;;;5111823;28;20038;-61
2023/10/20 14:39:48;;;;;;;28.45;6.25;;;30.20;61.90;;;;;;5111758;28;20050;-60
2023/10/20 14:42:53;;;;;;;31.70;5.82;;;30.10;61.80;;;;;;5111688;28;20451;-60
2023/10/20 14:45:57;;;;;;;38.13;5.72;;;30.00;61.90;;;;;;5111482;28;20058;-60
2023/10/20 14:49:02;;;;;;;33.38;6.10;;;30.10;62.90;;;;;;5111808;28;20148;-61
2023/10/20 14:52:06;;;;;;;37.97;5.78;;;29.90;63.50;;;;;;5111469;28;20043;-60
2023/10/20 14:55:11;;;;;;;32.90;5.97;;;29.90;62.20;;;;;;5111736;28;20046;-60
2023/10/20 14:58:18;;;;;;;33.92;5.68;;;29.90;62.90;;;;;;5110626;28;20407;-60
2023/10/20 15:01:22;;;;;;;35.72;5.93;;;29.80;63.20;;;;;;5111548;28;20046;-60
2023/10/20 15:04:26;;;;;;;32.83;6.55;;;29.80;63.10;;;;;;5111061;28;20514;-60
2023/10/20 15:07:35;;;;;;;29.25;4.97;;;29.80;62.50;;;;;;5111639;28;20063;-60
2023/10/20 15:10:39;;;;;;;28.50;5.80;;;30.20;62.50;;;;;;5111253;28;20058;-61
2023/10/20 15:13:46;;;;;;;22.30;4.93;;;29.80;62.80;;;;;;5111077;28;20402;-60
2023/10/20 15:16:50;;;;;;;42.33;6.00;;;29.80;63.20;;;;;;5111273;28;20150;-60
2023/10/20 15:19:54;;;;;;;26.00;5.40;;;29.90;62.50;;;;;;5111360;28;20439;-60
2023/10/20 15:22:59;;;;;;;35.00;6.45;;;29.90;63.70;;;;;;5111445;28;20055;-60
2023/10/20 15:26:05;;;;;;;36.60;7.30;;;29.90;63.70;;;;;;5110651;28;20066;-59
2023/10/20 15:29:10;;;;;;;32.40;6.05;;;29.80;64.30;;;;;;5111190;28;20051;-60
2023/10/20 15:32:15;;;;;;;24.88;5.88;;;29.80;63.80;;;;;;5110736;28;20399;-60
2023/10/20 15:35:20;;;;;;;36.53;5.68;;;29.70;63.90;;;;;;5111557;28;20054;-59
2023/10/20 15:38:24;;;;;;;24.88;5.22;;;29.70;64.60;;;;;;5110072;28;20046;-59
2023/10/20 15:41:28;;;;;;;34.08;5.72;;;29.60;65.90;;;;;;5110867;28;20105;-59
2023/10/20 15:44:32;;;;;;;29.52;5.80;;;29.50;66.90;;;;;;5109731;28;20039;-61
2023/10/20 15:47:37;;;;;;;46.95;6.28;;;29.50;67.40;;;;;;5111172;28;20050;-61
2023/10/20 15:50:44;;;;;;;28.42;6.30;;;29.40;67.30;;;;;;5110849;28;20039;-60
2023/10/20 15:53:51;;;;;;;24.92;6.45;;;29.30;68.30;;;;;;5110861;28;20105;-60
2023/10/20 15:56:56;;;;;;;33.05;6.15;;;29.20;69.10;;;;;;5110626;28;20042;-59
2023/10/20 16:00:01;;;;;;;45.58;7.40;;;29.10;69.80;;;;;;5110772;28;20050;-59
2023/10/20 16:03:05;;;;;;;38.47;6.00;;;28.80;69.10;;;;;;5110696;28;20525;-60
2023/10/20 16:06:11;;;;;;;40.70;6.22;;;27.40;67.80;;;;;;5110598;28;20051;-59
2023/10/20 16:09:15;;;;;;;27.40;5.43;;;28.90;69.00;;;;;;5110841;28;20054;-61
2023/10/20 16:12:19;;;;;;;33.83;6.18;;;28.90;68.80;;;;;;5110780;28;20525;-60
2023/10/20 16:15:23;;;;;;;34.28;6.00;;;28.90;69.60;;;;;;5110429;28;20042;-60
2023/10/20 16:18:27;;;;;;;44.40;7.43;;;28.80;70.90;;;;;;5110659;28;20047;-60
2023/10/20 16:21:32;;;;;;;35.95;6.57;;;29.00;70.50;;;;;;5110665;28;20042;-60
2023/10/20 16:24:36;;;;;;;33.65;5.95;;;28.70;70.00;;;;;;5110863;28;20054;-60
2023/10/20 16:27:40;;;;;;;39.72;5.78;;;28.70;69.30;;;;;;5114198;28;20051;-62
2023/10/20 16:30:45;;;;;;;41.65;6.80;;;28.80;69.40;;;;;;5114336;28;20051;-61
2023/10/20 16:33:48;;;;;;;32.78;5.43;;;28.80;68.20;;;;;;5114514;28;20043;-61